KACY

Atlantic City International Airport

Atlantic City, New Jersey, USA
KACY 151120Z 1512/1612 27010KT P6SM SCT100 FM151400 27010G18KT P6SM SCT050 FM152300 25004KT P6SM SCT250
Issued Valid From Valid To
Aug-15 @ 11:20 UTC
(an hour ago)
Aug-15 @ 12:00 UTC
(39 minutes ago)
Aug-16 @ 12:00 UTC
(in 23 hours)
Aug-15 @ 12:00 to Aug-15 @ 14:00
KACY 151120Z 1512/1612 27010KT P6SM SCT100
Wind Visibility Clouds
270° at 10 knots Greater than 6 miles
  • Scattered at 10,000' AGL
From Aug-15 @ 14:00 to Aug-15 @ 23:00
FM151400 27010G18KT P6SM SCT050
Wind Visibility Clouds
270° at 10 knots
 Gusting to 18 knots
Greater than 6 miles
  • Scattered at 5,000' AGL
From Aug-15 @ 23:00 to Aug-16 @ 12:00
FM152300 25004KT P6SM SCT250
Wind Visibility Clouds
250° at 4 knots Greater than 6 miles
  • Scattered at 25,000' AGL
KACY 151120Z 1512/1612 27010KT P6SM SCT100 FM151400 27010G18KT P6SM SCT050 FM152300 25004KT P6SM SCT250
Issued Aug-15 @ 11:20 UTC
(an hour ago)
Valid From Aug-15 @ 12:00 UTC
(39 minutes ago)
Valid To Aug-16 @ 12:00 UTC
(in 23 hours)
Aug-15 @ 12:00 - Aug-15 @ 14:00
Wind Visibility
270° at 10 knots Greater than 6 miles
Clouds
  • Scattered at 10,000' AGL
From Aug-15 @ 14:00 - Aug-15 @ 23:00
Wind Visibility
270° at 10 knots
 Gusting to 18 knots
Greater than 6 miles
Clouds
  • Scattered at 5,000' AGL
From Aug-15 @ 23:00 - Aug-16 @ 12:00
Wind Visibility
250° at 4 knots Greater than 6 miles
Clouds
  • Scattered at 25,000' AGL